This is the latest recevied weather packets stored in our database for station/object SQ5DN-4. If no packets are shown the sender has not sent any weather packets the latest 10 day(s).
| Time | Temp. | Humidity | Pressure | Rain* | Wind** | Luminosity | Snow |
|---|---|---|---|---|---|---|---|
| 1778046352 | 16.11° C | 70% | 1002 hPa | - | - | - | - |
| 1778045802 | 15.56° C | 73% | 1002 hPa | - | - | - | - |
| 1778045319 | 15.56° C | 75% | 1002 hPa | - | - | - | - |
| 1778044737 | 14.44° C | 77% | 1002 hPa | - | - | - | - |
| 1778044217 | 13.89° C | 80% | 1002 hPa | - | - | - | - |
| 1778043692 | 13.33° C | 83% | 1002 hPa | - | - | - | - |
| 1778043197 | 12.78° C | 84% | 1002 hPa | - | - | - | - |
| 1778042643 | 12.78° C | 84% | 1002 hPa | - | - | - | - |
| 1778042152 | 12.78° C | 85% | 1002 hPa | - | - | - | - |
| 1778041602 | 12.22° C | 86% | 1002 hPa | - | - | - | - |
| 1778041077 | 11.11° C | 89% | 1002 hPa | - | - | - | - |
| 1778040482 | 11.11° C | 89% | 1002 hPa | - | - | - | - |
| 1778039942 | 11.11° C | 89% | 1002 hPa | - | - | - | - |
| 1778039458 | 11.11° C | 88% | 1002 hPa | - | - | - | - |
| 1778038907 | 10.56° C | 86% | 1002 hPa | - | - | - | - |
| 1778038382 | 10.56° C | 85% | 1002 hPa | - | - | - | - |
| 1778037848 | 10.56° C | 85% | 1002 hPa | - | - | - | - |
| 1778037317 | 10.56° C | 85% | 1002 hPa | - | - | - | - |
| 1778036802 | 10.56° C | 84% | 1002 hPa | - | - | - | - |
| 1778036307 | 10.56° C | 84% | 1002 hPa | - | - | - | - |
| 1778035802 | 10.56° C | 84% | 1002 hPa | - | - | - | - |
| 1778035267 | 10.56° C | 84% | 1003 hPa | - | - | - | - |
| 1778034737 | 10.56° C | 84% | 1003 hPa | - | - | - | - |
| 1778034237 | 10.56° C | 84% | 1003 hPa | - | - | - | - |
| 1778033718 | 10.56° C | 83% | 1003 hPa | - | - | - | - |
* Rain since midnight (hover to see other rain measurements)
** Current wind speed in m/s (hover to see current wind gust speed)